createdAt,value
2022-08-24T00:02:03.819Z,8.38
2022-08-24T00:07:19.147Z,9.23
2022-08-24T00:12:31.514Z,7.55
2022-08-24T00:17:36.507Z,8.13
2022-08-24T00:22:41.224Z,7.75
2022-08-24T00:27:45.170Z,8.10
2022-08-24T00:32:50.497Z,8.20
2022-08-24T00:37:55.379Z,8.93
2022-08-24T00:43:03.365Z,7.33
2022-08-24T00:48:14.876Z,8.35
2022-08-24T00:53:25.990Z,7.10
2022-08-24T00:58:35.560Z,7.28
2022-08-24T01:03:42.753Z,7.57
2022-08-24T01:08:46.769Z,8.35
2022-08-24T01:13:58.606Z,7.93
2022-08-24T01:19:05.394Z,9.63
2022-08-24T01:24:14.632Z,7.88
2022-08-24T01:29:23.731Z,7.97
2022-08-24T01:34:27.863Z,7.78
2022-08-24T01:39:37.382Z,7.07
2022-08-24T01:44:45.527Z,6.93
2022-08-24T01:49:50.648Z,7.20
2022-08-24T01:54:59.380Z,7.53
2022-08-24T02:00:03.625Z,8.23
2022-08-24T02:05:18.049Z,7.95
2022-08-24T02:10:25.951Z,6.50
2022-08-24T02:15:33.233Z,6.78
2022-08-24T02:20:38.402Z,8.57
2022-08-24T02:25:44.365Z,8.40
2022-08-24T02:35:52.598Z,7.57
2022-08-24T02:40:58.112Z,9.35
2022-08-24T02:46:02.495Z,9.07
2022-08-24T02:51:07.375Z,9.97
2022-08-24T02:56:13.128Z,13.50
2022-08-24T03:01:24.042Z,13.70
2022-08-24T03:06:29.271Z,13.88
2022-08-24T03:11:35.327Z,13.75
2022-08-24T03:16:39.366Z,14.90
2022-08-24T03:21:44.179Z,14.63
2022-08-24T03:26:50.534Z,16.13
2022-08-24T03:31:54.297Z,14.98
2022-08-24T03:36:58.417Z,13.55
2022-08-24T03:42:03.721Z,11.38
2022-08-24T03:47:08.568Z,10.95
2022-08-24T03:52:13.142Z,10.98
2022-08-24T03:57:19.630Z,11.52
2022-08-24T04:02:23.462Z,11.70
2022-08-24T04:07:27.539Z,11.55
2022-08-24T04:12:32.795Z,10.18
2022-08-24T04:17:36.562Z,10.55
2022-08-24T04:22:41.683Z,10.63
2022-08-24T04:27:47.484Z,11.60
2022-08-24T04:32:51.314Z,10.02
2022-08-24T04:37:55.892Z,13.10
2022-08-24T04:43:01.692Z,13.13
2022-08-24T04:48:05.875Z,10.07
2022-08-24T04:53:10.341Z,12.25
2022-08-24T04:58:17.109Z,14.57
2022-08-24T05:03:20.908Z,11.93
2022-08-24T05:08:31.325Z,12.77
2022-08-24T05:13:36.779Z,10.45
2022-08-24T05:18:41.113Z,10.73
2022-08-24T05:24:09.652Z,11.65
2022-08-24T05:29:15.284Z,10.70
2022-08-24T05:34:35.421Z,10.60
2022-08-24T05:39:40.122Z,10.67
2022-08-24T05:44:47.312Z,9.75
2022-08-24T05:50:02.612Z,10.13
2022-08-24T05:55:07.717Z,9.65
2022-08-24T06:00:26.455Z,10.43
2022-08-24T06:05:31.478Z,9.57
2022-08-24T06:10:41.915Z,9.68
2022-08-24T06:16:04.895Z,9.55
2022-08-24T06:21:16.411Z,9.88
2022-08-24T06:36:47.748Z,9.13
2022-08-24T06:41:55.984Z,9.77
2022-08-24T06:47:16.399Z,10.00
2022-08-24T06:52:20.133Z,8.88
2022-08-24T06:57:24.075Z,9.82
2022-08-24T07:02:31.275Z,11.55
2022-08-24T07:07:35.285Z,9.95
2022-08-24T07:12:39.268Z,9.05
2022-08-24T07:17:44.367Z,10.45
2022-08-24T07:22:48.232Z,14.00
2022-08-24T07:27:52.131Z,11.15
2022-08-24T07:32:58.777Z,9.20
2022-08-24T07:38:06.590Z,9.55
2022-08-24T07:43:10.499Z,10.40
2022-08-24T07:48:15.736Z,10.85
2022-08-24T07:53:27.908Z,10.15
2022-08-24T07:58:44.360Z,9.55
2022-08-24T08:03:52.403Z,11.33
2022-08-24T08:08:56.291Z,11.07
2022-08-24T08:14:00.543Z,10.85
2022-08-24T08:19:10.075Z,11.33
2022-08-24T08:24:16.731Z,10.07
2022-08-24T08:29:29.372Z,10.25
2022-08-24T08:34:35.568Z,10.55
2022-08-24T08:39:40.724Z,11.27
2022-08-24T08:44:59.364Z,11.05
2022-08-24T08:50:14.386Z,10.45
2022-08-24T08:55:29.421Z,10.63
2022-08-24T09:00:53.741Z,13.25
2022-08-24T09:06:20.133Z,10.35
2022-08-24T09:11:35.017Z,10.20
2022-08-24T09:22:09.317Z,10.60
2022-08-24T09:27:23.910Z,10.52
2022-08-24T09:32:39.358Z,10.95
2022-08-24T09:38:00.823Z,11.60
2022-08-24T09:43:41.998Z,11.85
2022-08-24T09:49:17.492Z,11.65
2022-08-24T09:54:49.409Z,11.20
2022-08-24T10:00:12.246Z,9.98
2022-08-24T10:05:28.085Z,12.32
2022-08-24T10:10:40.988Z,12.20
2022-08-24T10:15:54.573Z,12.77
2022-08-24T10:21:10.052Z,13.13
2022-08-24T10:26:41.355Z,13.88
2022-08-24T10:32:08.592Z,12.95
2022-08-24T10:37:33.057Z,9.55
2022-08-24T10:43:24.045Z,13.65
2022-08-24T10:49:02.290Z,10.90
2022-08-24T10:54:13.359Z,12.77
2022-08-24T10:59:27.910Z,11.57
2022-08-24T11:04:35.429Z,14.25
2022-08-24T11:09:48.906Z,12.65
2022-08-24T11:14:55.610Z,13.20
2022-08-24T11:20:00.193Z,11.95
2022-08-24T11:25:34.998Z,12.27
2022-08-24T11:30:43.127Z,11.48
2022-08-24T11:35:46.878Z,11.30
2022-08-24T11:40:54.854Z,11.70
2022-08-24T11:46:09.313Z,11.55
2022-08-24T11:51:21.338Z,12.43
2022-08-24T11:56:32.910Z,12.27
2022-08-24T12:01:46.433Z,11.32
2022-08-24T12:07:01.145Z,13.25
2022-08-24T12:12:13.749Z,13.40
2022-08-24T12:17:27.949Z,13.35
2022-08-24T12:22:33.300Z,13.50
2022-08-24T12:27:39.631Z,12.02
2022-08-24T12:32:48.853Z,13.38
2022-08-24T12:37:59.243Z,12.52
2022-08-24T12:43:08.715Z,13.48
2022-08-24T12:48:17.827Z,16.08
2022-08-24T12:53:45.641Z,14.60
2022-08-24T12:58:58.477Z,12.82
2022-08-24T13:04:15.611Z,13.13
2022-08-24T13:09:32.068Z,12.60
2022-08-24T13:14:35.884Z,14.10
2022-08-24T13:19:44.520Z,11.88
2022-08-24T13:24:54.634Z,11.93
2022-08-24T13:30:19.479Z,11.57
2022-08-24T13:35:58.228Z,13.38
2022-08-24T13:41:11.663Z,17.15
2022-08-24T13:46:22.321Z,12.33
2022-08-24T13:51:38.406Z,12.25
2022-08-24T13:57:01.485Z,11.90
2022-08-24T14:02:28.012Z,11.80
2022-08-24T14:07:50.927Z,12.07
2022-08-24T14:13:01.336Z,10.93
2022-08-24T14:18:12.017Z,11.60
2022-08-24T14:23:30.008Z,12.88
2022-08-24T14:28:40.462Z,12.52
2022-08-24T14:33:52.876Z,9.23
2022-08-24T14:39:06.690Z,6.85
2022-08-24T14:44:30.953Z,5.78
2022-08-24T14:49:47.481Z,5.75
2022-08-24T14:55:13.791Z,5.50
2022-08-24T15:00:20.581Z,6.07
2022-08-24T15:05:37.256Z,5.88
2022-08-24T15:10:48.860Z,5.40
2022-08-24T15:15:57.777Z,5.30
2022-08-24T15:21:10.928Z,6.68
2022-08-24T15:26:24.381Z,4.40
2022-08-24T15:31:30.992Z,4.22
2022-08-24T15:36:35.428Z,4.90
2022-08-24T15:41:43.083Z,6.00
2022-08-24T15:46:50.480Z,4.70
2022-08-24T15:51:58.212Z,6.00
2022-08-24T15:57:06.740Z,7.53
2022-08-24T16:02:30.617Z,6.97
2022-08-24T16:08:05.806Z,5.55
2022-08-24T16:13:19.179Z,7.43
2022-08-24T16:18:23.201Z,6.05
2022-08-24T16:23:31.585Z,6.45
2022-08-24T16:28:38.402Z,6.63
2022-08-24T16:33:49.628Z,6.85
2022-08-24T16:38:53.597Z,7.72
2022-08-24T16:48:46.506Z,6.33
2022-08-24T16:53:50.140Z,5.90
2022-08-24T16:58:54.103Z,5.75
2022-08-24T17:03:59.217Z,6.45
2022-08-24T17:14:07.120Z,5.55
2022-08-24T17:19:15.937Z,6.90
2022-08-24T17:24:23.189Z,7.38
2022-08-24T17:29:27.998Z,6.93
2022-08-24T17:34:33.573Z,6.47
2022-08-24T17:39:37.676Z,6.55
2022-08-24T17:44:42.131Z,6.97
2022-08-24T17:49:48.531Z,7.47
2022-08-24T17:59:55.961Z,7.28
2022-08-24T18:05:01.099Z,6.70
2022-08-24T18:10:07.795Z,7.97
2022-08-24T18:15:15.514Z,8.00
2022-08-24T18:20:25.994Z,6.72
2022-08-24T18:25:30.401Z,9.63
2022-08-24T18:30:34.090Z,7.83
2022-08-24T18:35:39.278Z,11.95
2022-08-24T18:40:52.068Z,9.90
2022-08-24T18:45:56.938Z,11.10
2022-08-24T18:51:02.662Z,10.82
2022-08-24T18:56:11.784Z,11.73
2022-08-24T19:01:16.476Z,10.82
2022-08-24T19:06:21.652Z,8.55
2022-08-24T19:11:26.109Z,9.65
2022-08-24T19:16:29.826Z,7.30
2022-08-24T19:21:38.050Z,6.83
2022-08-24T19:26:41.753Z,7.50
2022-08-24T19:31:45.865Z,6.95
2022-08-24T19:36:51.136Z,5.80
2022-08-24T19:46:59.374Z,6.03
2022-08-24T19:52:05.524Z,5.68
2022-08-24T19:57:31.209Z,5.60
2022-08-24T20:02:35.303Z,9.80
2022-08-24T20:07:40.998Z,6.68
2022-08-24T20:12:44.868Z,6.47
2022-08-24T20:17:50.211Z,6.85
2022-08-24T20:22:56.021Z,7.35
2022-08-24T20:28:27.680Z,5.50
2022-08-24T20:33:28.033Z,6.15
2022-08-24T20:38:33.965Z,6.10
2022-08-24T20:43:37.695Z,6.90
2022-08-24T20:48:42.990Z,7.82
2022-08-24T20:53:48.372Z,6.57
2022-08-24T20:58:52.248Z,7.00
2022-08-24T21:03:59.273Z,7.13
2022-08-24T21:09:08.108Z,6.57
2022-08-24T21:14:18.231Z,7.03
2022-08-24T21:19:22.008Z,5.70
2022-08-24T21:24:27.223Z,6.32
2022-08-24T21:29:31.436Z,6.70
2022-08-24T21:34:44.132Z,6.72
2022-08-24T21:39:49.588Z,9.48
2022-08-24T21:44:53.568Z,8.63
2022-08-24T21:49:57.380Z,7.93
2022-08-24T21:55:02.968Z,8.82
2022-08-24T22:00:11.831Z,7.95
2022-08-24T22:05:16.298Z,7.22
2022-08-24T22:10:21.757Z,8.23
2022-08-24T22:20:29.223Z,5.55
2022-08-24T22:25:34.335Z,7.00
2022-08-24T22:30:38.112Z,6.50
2022-08-24T22:35:44.813Z,6.10
2022-08-24T22:40:56.218Z,7.07
2022-08-24T22:45:59.878Z,6.28
2022-08-24T22:51:04.249Z,7.63
2022-08-24T22:56:16.806Z,6.43
2022-08-24T23:01:22.830Z,7.22
2022-08-24T23:06:27.939Z,7.85
2022-08-24T23:11:33.499Z,6.15
2022-08-24T23:16:39.562Z,6.10
2022-08-24T23:21:43.748Z,6.88
2022-08-24T23:26:49.005Z,5.80
2022-08-24T23:31:53.671Z,6.90
2022-08-24T23:36:57.408Z,6.20
2022-08-24T23:42:02.550Z,7.57
2022-08-24T23:47:06.729Z,6.93
2022-08-24T23:52:12.404Z,8.35
2022-08-24T23:57:32.272Z,6.85
